Time;durP1;ratioP1;P1;durP2;ratioP2;P2;SDS_P1;SDS_P2;PMS_P1;PMS_P2;Temp;Humidity;BMP_temperature;BMP_pressure;BME280_temperature;BME280_humidity;BME280_pressure;Samples;Min_cycle;Max_cycle;Signal;HPM_P1;HPM_P2
2022/09/11 00:01:59;;;;;;;;;;;;;;;13.43;100.00;98375.11;2240877;79;20095;-57
2022/09/11 00:05:00;;;;;;;;;;;;;;;13.41;100.00;98368.66;2243104;79;20154;-56
2022/09/11 00:08:00;;;;;;;;;;;;;;;13.45;100.00;98371.41;2237749;79;20126;-57
2022/09/11 00:11:01;;;;;;;;;;;;;;;13.44;100.00;98372.84;2235590;78;20488;-57
2022/09/11 00:14:01;;;;;;;;;;;;;;;13.43;100.00;98372.02;2244719;79;20106;-57
2022/09/11 00:17:02;;;;;;;;;;;;;;;13.29;100.00;98366.49;2243246;79;20139;-57
2022/09/11 00:20:02;;;;;;;;;;;;;;;13.42;100.00;98359.80;2239500;79;20384;-57
2022/09/11 00:23:04;;;;;;;;;;;;;;;13.48;100.00;98371.64;2239045;79;20188;-57
2022/09/11 00:26:05;;;;;;;;;;;;;;;13.46;100.00;98363.86;2235378;78;20086;-56
2022/09/11 00:29:06;;;;;;;;;;;;;;;13.51;100.00;98360.85;2241702;79;20125;-56
2022/09/11 00:32:08;;;;;;;;;;;;;;;13.49;100.00;98364.94;2240482;79;20107;-57
2022/09/11 00:35:09;;;;;;;;;;;;;;;13.48;100.00;98355.34;2241269;78;20123;-57
2022/09/11 00:38:10;;;;;;;;;;;;;;;13.50;100.00;98360.48;2220375;79;20094;-57
2022/09/11 00:41:10;;;;;;;;;;;;;;;13.49;100.00;98368.88;2241354;79;20129;-56
2022/09/11 00:44:11;;;;;;;;;;;;;;;13.42;100.00;98367.70;2237076;79;20107;-56
2022/09/11 00:47:12;;;;;;;;;;;;;;;13.30;100.00;98373.91;2242698;78;20099;-56
2022/09/11 00:50:12;;;;;;;;;;;;;;;13.34;100.00;98366.98;2244391;79;20142;-58
2022/09/11 00:53:13;;;;;;;;;;;;;;;13.27;100.00;98369.71;2246549;78;20094;-57
2022/09/11 00:56:13;;;;;;;;;;;;;;;13.19;100.00;98377.41;2249184;79;20385;-57
2022/09/11 00:59:14;;;;;;;;;;;;;;;13.13;100.00;98367.33;2227824;79;20107;-57
2022/09/11 01:02:14;;;;;;;;;;;;;;;13.11;100.00;98369.27;2240302;79;20143;-58
2022/09/11 01:05:15;;;;;;;;;;;;;;;13.11;100.00;98364.83;2249278;78;20188;-58
2022/09/11 01:08:15;;;;;;;;;;;;;;;13.08;100.00;98366.38;2237902;78;20098;-58
2022/09/11 01:11:16;;;;;;;;;;;;;;;13.08;100.00;98364.24;2239502;79;20090;-58
2022/09/11 01:14:16;;;;;;;;;;;;;;;13.05;100.00;98361.36;2239635;79;20439;-58
2022/09/11 01:17:18;;;;;;;;;;;;;;;12.94;100.00;98357.42;2244472;79;20094;-56
2022/09/11 01:20:18;;;;;;;;;;;;;;;12.95;100.00;98363.88;2238407;79;20170;-56
2022/09/11 01:23:19;;;;;;;;;;;;;;;12.93;100.00;98361.86;2218940;78;20237;-56
2022/09/11 01:26:20;;;;;;;;;;;;;;;12.89;100.00;98345.94;2240568;78;20106;-57
2022/09/11 01:29:22;;;;;;;;;;;;;;;12.83;100.00;98349.88;2240852;79;20122;-58
2022/09/11 01:32:22;;;;;;;;;;;;;;;12.94;100.00;98340.31;2242509;79;20102;-59
2022/09/11 01:35:23;;;;;;;;;;;;;;;12.92;100.00;98346.19;2242620;79;20138;-58
2022/09/11 01:38:24;;;;;;;;;;;;;;;12.93;100.00;98346.06;2196776;80;20096;-58
2022/09/11 01:41:26;;;;;;;;;;;;;;;12.91;100.00;98344.50;2198590;80;20209;-58
2022/09/11 01:44:26;;;;;;;;;;;;;;;12.89;100.00;98343.80;2178316;80;20132;-58
2022/09/11 01:47:27;;;;;;;;;;;;;;;12.80;100.00;98342.69;2198043;80;20391;-58
2022/09/11 01:50:27;;;;;;;;;;;;;;;12.85;100.00;98341.87;2202323;81;20104;-57
2022/09/11 01:53:28;;;;;;;;;;;;;;;12.95;100.00;98345.45;2202223;80;20109;-58
2022/09/11 01:56:28;;;;;;;;;;;;;;;13.05;100.00;98336.35;2202863;80;20387;-56
2022/09/11 01:59:28;;;;;;;;;;;;;;;13.02;100.00;98343.18;2210502;80;20117;-57
2022/09/11 02:02:29;;;;;;;;;;;;;;;13.01;100.00;98344.12;2204793;80;20128;-58
2022/09/11 02:05:29;;;;;;;;;;;;;;;13.04;100.00;98339.94;2205459;80;20123;-58
2022/09/11 02:08:30;;;;;;;;;;;;;;;12.91;100.00;98333.97;2200722;80;20101;-57
2022/09/11 02:11:31;;;;;;;;;;;;;;;12.89;100.00;98339.84;2198248;80;20153;-58
2022/09/11 02:14:31;;;;;;;;;;;;;;;12.98;100.00;98333.36;2208243;80;20395;-58
2022/09/11 02:17:32;;;;;;;;;;;;;;;12.93;100.00;98340.80;2203379;80;20097;-58
2022/09/11 02:20:33;;;;;;;;;;;;;;;12.85;100.00;98337.92;2205058;79;20097;-58
2022/09/11 02:23:33;;;;;;;;;;;;;;;12.85;100.00;98330.52;2203809;80;20407;-58
2022/09/11 02:26:34;;;;;;;;;;;;;;;12.86;100.00;98334.80;2199325;80;20231;-58
2022/09/11 02:29:34;;;;;;;;;;;;;;;12.78;100.00;98332.78;2207034;80;20105;-58
2022/09/11 02:32:35;;;;;;;;;;;;;;;12.77;100.00;98329.78;2202095;80;20105;-58
2022/09/11 02:35:36;;;;;;;;;;;;;;;12.76;100.00;98328.12;2203730;80;20407;-58
2022/09/11 02:38:36;;;;;;;;;;;;;;;12.79;100.00;98324.76;2205840;80;20084;-58
2022/09/11 02:41:36;;;;;;;;;;;;;;;12.67;100.00;98321.78;2210755;80;20096;-56
2022/09/11 02:44:37;;;;;;;;;;;;;;;12.79;100.00;98326.08;2205201;80;20399;-56
2022/09/11 02:47:37;;;;;;;;;;;;;;;12.82;100.00;98331.09;2202640;80;20093;-56
2022/09/11 02:50:38;;;;;;;;;;;;;;;12.83;100.00;98324.88;2201950;80;20104;-56
2022/09/11 02:53:38;;;;;;;;;;;;;;;12.83;100.00;98320.94;2202624;80;20164;-56
2022/09/11 02:56:39;;;;;;;;;;;;;;;12.86;100.00;98325.13;2192925;80;20101;-56
2022/09/11 02:59:39;;;;;;;;;;;;;;;12.83;100.00;98330.14;2202737;80;20107;-56
2022/09/11 03:02:40;;;;;;;;;;;;;;;12.90;100.00;98330.97;2205237;80;20103;-56
2022/09/11 03:05:40;;;;;;;;;;;;;;;12.94;100.00;98329.32;2204830;80;20128;-57
2022/09/11 03:08:41;;;;;;;;;;;;;;;12.97;100.00;98322.95;2204180;80;20136;-56
2022/09/11 03:11:42;;;;;;;;;;;;;;;12.96;100.00;98319.49;2202458;80;20120;-57
2022/09/11 03:14:42;;;;;;;;;;;;;;;13.02;100.00;98319.48;2203009;80;20093;-56
2022/09/11 03:17:43;;;;;;;;;;;;;;;13.03;100.00;98321.17;2202738;81;20127;-56
2022/09/11 03:20:45;;;;;;;;;;;;;;;13.06;100.00;98316.12;2199366;80;20137;-57
2022/09/11 03:23:46;;;;;;;;;;;;;;;13.03;100.00;98321.17;2159763;80;20105;-56
2022/09/11 03:26:46;;;;;;;;;;;;;;;13.04;100.00;98318.05;2202278;80;20123;-56
2022/09/11 03:29:47;;;;;;;;;;;;;;;12.99;100.00;98320.56;2203098;80;20194;-56
2022/09/11 03:32:47;;;;;;;;;;;;;;;13.00;100.00;98316.13;2204329;80;20194;-58
2022/09/11 03:35:47;;;;;;;;;;;;;;;12.98;100.00;98316.25;2201366;80;20175;-58
2022/09/11 03:38:48;;;;;;;;;;;;;;;12.91;100.00;98321.64;2204585;80;20107;-58
2022/09/11 03:41:50;;;;;;;;;;;;;;;12.95;100.00;98328.34;2203639;80;20113;-57
2022/09/11 03:44:50;;;;;;;;;;;;;;;12.94;100.00;98313.98;2205746;80;20119;-58
2022/09/11 03:47:52;;;;;;;;;;;;;;;12.99;100.00;98315.78;2202329;80;20132;-57
2022/09/11 03:50:53;;;;;;;;;;;;;;;12.98;100.00;98316.73;2206306;80;20141;-58
2022/09/11 03:53:53;;;;;;;;;;;;;;;13.00;100.00;98313.03;2205220;80;20105;-58
2022/09/11 03:56:54;;;;;;;;;;;;;;;13.06;100.00;98313.02;2201642;80;20403;-58
2022/09/11 03:59:55;;;;;;;;;;;;;;;13.02;100.00;98312.08;2205022;80;20186;-58
2022/09/11 04:02:56;;;;;;;;;;;;;;;13.04;100.00;98312.30;2196400;80;20119;-58
2022/09/11 04:05:57;;;;;;;;;;;;;;;12.99;100.00;98311.34;2202413;80;20143;-58
2022/09/11 04:08:57;;;;;;;;;;;;;;;12.95;100.00;98305.14;2184762;81;20105;-57
2022/09/11 04:11:57;;;;;;;;;;;;;;;13.02;100.00;98309.45;2204691;80;20399;-56
2022/09/11 04:14:59;;;;;;;;;;;;;;;13.12;100.00;98303.31;2203018;80;20132;-57
2022/09/11 04:17:59;;;;;;;;;;;;;;;13.13;100.00;98306.77;2205171;80;20108;-56
2022/09/11 04:21:00;;;;;;;;;;;;;;;13.08;100.00;98307.63;2206272;80;20403;-57
2022/09/11 04:24:00;;;;;;;;;;;;;;;13.11;100.00;98311.34;2203098;80;20132;-56
2022/09/11 04:27:01;;;;;;;;;;;;;;;13.22;100.00;98308.69;2205917;79;20124;-57
2022/09/11 04:30:02;;;;;;;;;;;;;;;13.22;100.00;98307.37;2205248;80;20391;-56
2022/09/11 04:33:03;;;;;;;;;;;;;;;13.24;100.00;98314.66;2208996;80;20108;-57
2022/09/11 04:36:04;;;;;;;;;;;;;;;13.25;100.00;98311.56;2205557;80;20364;-57
2022/09/11 04:39:05;;;;;;;;;;;;;;;13.30;100.00;98305.42;2208597;80;20104;-56
2022/09/11 04:42:06;;;;;;;;;;;;;;;13.31;100.00;98293.94;2206941;80;20092;-57
2022/09/11 04:45:07;;;;;;;;;;;;;;;13.32;100.00;98304.84;2200168;81;20113;-57
2022/09/11 04:48:07;;;;;;;;;;;;;;;13.33;100.00;98306.48;2208302;80;20144;-56
2022/09/11 04:51:08;;;;;;;;;;;;;;;13.33;100.00;98309.98;2206087;79;20540;-56
2022/09/11 04:54:08;;;;;;;;;;;;;;;13.35;100.00;98304.62;2206172;80;20109;-56
2022/09/11 04:57:09;;;;;;;;;;;;;;;13.37;100.00;98305.31;2197570;80;20128;-57
2022/09/11 05:00:09;;;;;;;;;;;;;;;13.37;100.00;98297.41;2200197;79;20414;-57
2022/09/11 05:03:10;;;;;;;;;;;;;;;13.25;100.00;98301.03;2200836;80;20097;-56
2022/09/11 05:06:11;;;;;;;;;;;;;;;13.26;100.00;98300.91;2203428;80;20124;-57
2022/09/11 05:09:12;;;;;;;;;;;;;;;13.44;100.00;98294.64;2199499;80;20100;-58
2022/09/11 05:12:12;;;;;;;;;;;;;;;13.47;100.00;98309.37;2194170;80;20097;-57
2022/09/11 05:15:13;;;;;;;;;;;;;;;13.43;100.00;98300.03;2204392;80;20101;-58
2022/09/11 05:18:14;;;;;;;;;;;;;;;13.58;100.00;98299.28;2203282;80;20101;-58
2022/09/11 05:21:14;;;;;;;;;;;;;;;13.55;100.00;98302.14;2200319;80;20092;-56
2022/09/11 05:24:15;;;;;;;;;;;;;;;13.63;100.00;98299.27;2200827;80;20096;-58
2022/09/11 05:27:15;;;;;;;;;;;;;;;13.69;100.00;98299.22;2197518;80;20109;-58
2022/09/11 05:30:16;;;;;;;;;;;;;;;13.64;100.00;98298.28;2207751;80;20131;-58
2022/09/11 05:33:16;;;;;;;;;;;;;;;13.60;100.00;98297.35;2202788;80;20100;-57
2022/09/11 05:36:17;;;;;;;;;;;;;;;13.58;100.00;98306.70;2202468;80;20092;-56
2022/09/11 05:39:17;;;;;;;;;;;;;;;13.66;100.00;98297.69;2205894;80;20085;-58
2022/09/11 05:42:18;;;;;;;;;;;;;;;13.73;100.00;98291.91;2200413;80;20120;-58
2022/09/11 05:45:18;;;;;;;;;;;;;;;13.75;100.00;98300.05;2202946;80;20446;-58
2022/09/11 05:48:20;;;;;;;;;;;;;;;13.72;100.00;98299.45;2207078;80;20477;-58
2022/09/11 05:51:20;;;;;;;;;;;;;;;13.71;100.00;98291.21;2208810;80;20152;-57
2022/09/11 05:54:21;;;;;;;;;;;;;;;13.77;100.00;98296.80;2205383;80;20144;-58
2022/09/11 05:57:22;;;;;;;;;;;;;;;13.80;100.00;98299.17;2207761;79;20136;-58
2022/09/11 06:00:23;;;;;;;;;;;;;;;13.79;100.00;98300.16;2205473;80;20439;-58
2022/09/11 06:03:25;;;;;;;;;;;;;;;13.87;100.00;98304.78;2204503;80;20136;-58
2022/09/11 06:06:26;;;;;;;;;;;;;;;13.76;100.00;98296.43;2208459;80;20088;-58
2022/09/11 06:09:26;;;;;;;;;;;;;;;13.87;100.00;98303.46;2198745;80;20112;-58
2022/09/11 06:12:27;;;;;;;;;;;;;;;13.89;100.00;98300.70;2242355;78;20150;-58
2022/09/11 06:15:27;;;;;;;;;;;;;;;13.94;100.00;98310.39;2241919;79;20113;-58
2022/09/11 06:18:28;;;;;;;;;;;;;;;14.07;100.00;98309.72;2244692;79;20094;-58
2022/09/11 06:21:30;;;;;;;;;;;;;;;14.07;100.00;98314.16;2244291;79;20162;-58
2022/09/11 06:24:30;;;;;;;;;;;;;;;14.18;100.00;98312.78;2196184;78;20099;-57
2022/09/11 06:27:31;;;;;;;;;;;;;;;14.31;100.00;98313.41;2232850;79;20108;-58
2022/09/11 06:30:32;;;;;;;;;;;;;;;14.31;100.00;98317.83;2223293;79;20102;-58
2022/09/11 06:33:33;;;;;;;;;;;;;;;14.40;100.00;98318.88;2240092;79;20162;-59
2022/09/11 06:36:33;;;;;;;;;;;;;;;14.43;100.00;98315.98;2244284;79;20125;-58
2022/09/11 06:39:34;;;;;;;;;;;;;;;14.38;100.00;98311.10;2242527;79;20083;-58
2022/09/11 06:42:34;;;;;;;;;;;;;;;14.26;100.00;98317.41;2202816;80;20164;-58
2022/09/11 06:45:35;;;;;;;;;;;;;;;14.37;100.00;98317.34;2197921;81;20129;-58
2022/09/11 06:48:35;;;;;;;;;;;;;;;14.41;100.00;98312.16;2200661;80;20105;-57
2022/09/11 06:51:35;;;;;;;;;;;;;;;14.41;100.00;98317.89;2201393;80;20148;-57
2022/09/11 06:54:36;;;;;;;;;;;;;;;14.51;100.00;98313.50;2199486;81;20141;-57
2022/09/11 06:57:36;;;;;;;;;;;;;;;14.33;100.00;98316.74;2197909;80;20137;-58
2022/09/11 07:00:37;;;;;;;;;;;;;;;14.38;100.00;98319.02;2199841;81;20154;-57
2022/09/11 07:03:37;;;;;;;;;;;;;;;14.43;100.00;98315.48;2199137;80;20104;-59
2022/09/11 07:06:37;;;;;;;;;;;;;;;14.50;100.00;98312.67;2199545;80;20363;-58
2022/09/11 07:09:38;;;;;;;;;;;;;;;14.50;100.00;98309.21;2199488;81;20104;-57
2022/09/11 07:12:40;;;;;;;;;;;;;;;14.61;100.00;98313.09;2202038;80;20104;-57
2022/09/11 07:15:41;;;;;;;;;;;;;;;14.60;100.00;98308.77;2200572;80;20109;-57
2022/09/11 07:18:42;;;;;;;;;;;;;;;14.65;100.00;98315.86;2200265;80;20179;-58
2022/09/11 07:21:42;;;;;;;;;;;;;;;14.66;100.00;98316.68;2248333;79;20389;-57
2022/09/11 07:24:43;;;;;;;;;;;;;;;14.68;100.00;98310.77;2248074;78;20102;-58
2022/09/11 07:27:43;;;;;;;;;;;;;;;14.82;100.00;98305.62;2188535;80;20212;-57
2022/09/11 07:30:44;;;;;;;;;;;;;;;14.80;100.00;98304.94;2197514;81;20515;-58
2022/09/11 07:33:45;;;;;;;;;;;;;;;14.75;100.00;98310.59;2243486;79;20090;-56
2022/09/11 07:36:46;;;;;;;;;;;;;;;14.64;100.00;98310.22;2247255;78;20094;-57
2022/09/11 07:39:47;;;;;;;;;;;;;;;14.51;100.00;98307.76;2213149;80;20127;-56
2022/09/11 07:42:47;;;;;;;;;;;;;;;14.40;100.00;98315.75;2215883;80;20148;-58
2022/09/11 07:45:49;;;;;;;;;;;;;;;14.32;100.00;98312.92;2213248;80;20571;-58
2022/09/11 07:48:49;;;;;;;;;;;;;;;14.30;100.00;98319.64;2212852;80;20116;-58
2022/09/11 07:51:51;;;;;;;;;;;;;;;14.29;100.00;98325.05;2214552;80;20267;-58
2022/09/11 07:54:51;;;;;;;;;;;;;;;14.32;100.00;98320.38;2216627;79;20195;-58
2022/09/11 07:57:53;;;;;;;;;;;;;;;14.34;100.00;98317.60;2209331;80;20196;-58
2022/09/11 08:00:53;;;;;;;;;;;;;;;14.43;100.00;98325.21;2246710;79;20102;-58
2022/09/11 08:03:55;;;;;;;;;;;;;;;14.35;100.00;98322.74;2202133;80;20109;-58
2022/09/11 08:06:56;;;;;;;;;;;;;;;14.35;100.00;98316.61;2200705;81;20120;-58
2022/09/11 08:09:57;;;;;;;;;;;;;;;14.38;100.00;98332.20;2201281;81;20243;-58
2022/09/11 08:12:58;;;;;;;;;;;;;;;14.37;100.00;98327.39;2199336;80;20101;-59
2022/09/11 08:15:59;;;;;;;;;;;;;;;14.50;100.00;98339.06;2198709;80;20153;-58
2022/09/11 08:18:59;;;;;;;;;;;;;;;14.54;100.00;98329.92;2201690;80;20423;-58
2022/09/11 08:22:00;;;;;;;;;;;;;;;14.63;100.00;98342.84;2201878;80;20108;-59
2022/09/11 08:25:00;;;;;;;;;;;;;;;14.79;100.00;98348.14;2192753;80;20113;-58
2022/09/11 08:28:00;;;;;;;;;;;;;;;14.92;100.00;98346.10;2197174;80;20505;-58
2022/09/11 08:31:01;;;;;;;;;;;;;;;15.12;100.00;98335.12;2198358;80;20195;-58
2022/09/11 08:34:01;;;;;;;;;;;;;;;15.31;100.00;98339.61;2195586;80;20101;-58
2022/09/11 08:37:02;;;;;;;;;;;;;;;15.32;100.00;98349.22;2249914;78;20431;-57
2022/09/11 08:40:02;;;;;;;;;;;;;;;15.31;100.00;98348.86;2239952;78;20089;-58
2022/09/11 08:43:03;;;;;;;;;;;;;;;15.40;100.00;98353.34;2200276;79;20104;-59
2022/09/11 08:46:04;;;;;;;;;;;;;;;15.40;100.00;98352.50;2246006;78;20385;-58
2022/09/11 08:49:04;;;;;;;;;;;;;;;15.38;100.00;98355.77;2247597;78;20094;-59
2022/09/11 08:52:05;;;;;;;;;;;;;;;15.24;100.00;98360.47;2199531;81;20157;-59
2022/09/11 08:55:05;;;;;;;;;;;;;;;15.27;100.00;98351.45;2199715;80;20478;-57
2022/09/11 08:58:06;;;;;;;;;;;;;;;15.38;100.00;98353.13;2199113;81;20157;-58
2022/09/11 09:01:06;;;;;;;;;;;;;;;15.44;100.00;98343.33;2199999;80;20096;-59
2022/09/11 09:04:07;;;;;;;;;;;;;;;15.53;100.00;98361.03;2199328;80;20376;-59
2022/09/11 09:07:07;;;;;;;;;;;;;;;15.50;100.00;98356.48;2244363;79;20102;-58
2022/09/11 09:10:08;;;;;;;;;;;;;;;15.53;100.00;98353.09;2245189;78;20106;-58
2022/09/11 09:13:09;;;;;;;;;;;;;;;15.53;100.00;98350.45;2247544;79;20389;-58
2022/09/11 09:16:09;;;;;;;;;;;;;;;15.35;100.00;98346.30;2201751;80;20152;-58
2022/09/11 09:19:12;;;;;;;;;;;;;;;15.34;100.00;98348.62;2198390;81;20134;-58
2022/09/11 09:22:12;;;;;;;;;;;;;;;15.26;100.00;98351.09;2171989;80;20109;-58
2022/09/11 09:25:13;;;;;;;;;;;;;;;15.24;100.00;98349.91;2248367;78;20130;-58
2022/09/11 09:28:13;;;;;;;;;;;;;;;15.14;100.00;98340.27;2213891;80;20147;-57
2022/09/11 09:31:13;;;;;;;;;;;;;;;15.09;100.00;98331.44;2212843;80;20127;-57
2022/09/11 09:34:14;;;;;;;;;;;;;;;15.10;100.00;98335.75;2218053;80;20379;-56
2022/09/11 09:37:15;;;;;;;;;;;;;;;15.14;100.00;98341.59;2212242;79;20097;-57
2022/09/11 09:40:15;;;;;;;;;;;;;;;15.13;100.00;98343.41;2209877;80;20144;-57
2022/09/11 09:43:18;;;;;;;;;;;;;;;15.01;100.00;98338.72;2194633;80;20101;-58
2022/09/11 09:46:19;;;;;;;;;;;;;;;14.93;100.00;98331.94;2202083;80;20115;-59
2022/09/11 09:49:21;;;;;;;;;;;;;;;15.04;100.00;98325.70;2207738;80;20243;-58
2022/09/11 09:52:23;;;;;;;;;;;;;;;15.23;100.00;98332.37;2210835;80;20148;-59
2022/09/11 09:55:24;;;;;;;;;;;;;;;15.44;100.00;98326.65;2215754;80;20112;-57
2022/09/11 09:58:25;;;;;;;;;;;;;;;15.45;100.00;98327.83;2210435;80;20104;-58
2022/09/11 10:01:25;;;;;;;;;;;;;;;15.50;100.00;98328.73;2213324;80;20108;-57
2022/09/11 10:04:26;;;;;;;;;;;;;;;15.57;100.00;98328.06;2207290;80;20108;-57
2022/09/11 10:07:27;;;;;;;;;;;;;;;15.68;100.00;98331.55;2215157;80;20403;-58
2022/09/11 10:10:28;;;;;;;;;;;;;;;15.65;100.00;98336.62;2212990;80;20386;-58
2022/09/11 10:13:29;;;;;;;;;;;;;;;15.61;100.00;98331.75;2209701;80;20137;-59
2022/09/11 10:16:31;;;;;;;;;;;;;;;15.53;100.00;98320.53;2210431;80;20099;-58
2022/09/11 10:19:32;;;;;;;;;;;;;;;15.70;100.00;98324.30;2215623;80;20112;-58
2022/09/11 10:22:32;;;;;;;;;;;;;;;15.69;100.00;98326.63;2213413;80;20149;-59
2022/09/11 10:25:33;;;;;;;;;;;;;;;15.56;100.00;98334.81;2204394;80;20210;-58
2022/09/11 10:28:33;;;;;;;;;;;;;;;15.51;100.00;98332.56;2213217;80;20103;-58
2022/09/11 10:31:35;;;;;;;;;;;;;;;15.47;100.00;98342.23;2213277;79;20092;-59
2022/09/11 10:34:35;;;;;;;;;;;;;;;15.39;100.00;98341.59;2212679;80;20092;-58
2022/09/11 10:37:36;;;;;;;;;;;;;;;15.27;100.00;98336.06;2209788;80;20149;-58
2022/09/11 10:40:38;;;;;;;;;;;;;;;15.18;100.00;98327.97;2211554;80;20107;-58
2022/09/11 10:43:39;;;;;;;;;;;;;;;15.04;100.00;98333.16;2246572;78;20165;-58
2022/09/11 10:46:39;;;;;;;;;;;;;;;15.02;100.00;98335.09;2201902;81;20392;-58
2022/09/11 10:49:41;;;;;;;;;;;;;;;15.03;100.00;98327.52;2240220;79;20256;-59
2022/09/11 10:52:42;;;;;;;;;;;;;;;15.10;100.00;98314.63;2240324;79;20094;-58
2022/09/11 10:55:43;;;;;;;;;;;;;;;15.14;100.00;98319.99;2200193;81;20113;-59
2022/09/11 10:58:44;;;;;;;;;;;;;;;15.23;100.00;98316.52;2248290;77;20105;-58
2022/09/11 11:01:45;;;;;;;;;;;;;;;15.28;100.00;98319.25;2248189;79;20094;-58
2022/09/11 11:04:46;;;;;;;;;;;;;;;15.32;100.00;98320.66;2198360;81;20187;-59
2022/09/11 11:07:47;;;;;;;;;;;;;;;15.18;100.00;98314.77;2201304;80;20403;-58
2022/09/11 11:10:47;;;;;;;;;;;;;;;15.10;100.00;98318.59;2241394;79;20134;-59
2022/09/11 11:13:48;;;;;;;;;;;;;;;14.94;100.00;98331.44;2206370;80;20124;-58
2022/09/11 11:16:48;;;;;;;;;;;;;;;14.87;100.00;98347.83;2206367;79;20391;-58
2022/09/11 11:19:50;;;;;;;;;;;;;;;15.10;100.00;98347.64;2201209;79;20127;-58
2022/09/11 11:22:51;;;;;;;;;;;;;;;15.31;100.00;98352.00;2200030;81;20113;-58
2022/09/11 11:25:53;;;;;;;;;;;;;;;15.47;100.00;98347.02;2203238;80;20123;-59
2022/09/11 11:28:54;;;;;;;;;;;;;;;15.58;100.00;98350.86;2207679;80;20203;-58
2022/09/11 11:31:54;;;;;;;;;;;;;;;15.72;100.00;98349.64;2210937;80;20176;-58
2022/09/11 11:35:00;;;;;;;;;;;;;;;15.75;100.00;98351.17;2207764;80;20127;-57
2022/09/11 11:37:57;;;;;;;;;;;;;;;15.67;100.00;98351.84;2186958;80;20133;-58
2022/09/11 11:40:59;;;;;;;;;;;;;;;15.57;100.00;98345.72;2187709;80;20407;-56
2022/09/11 11:44:00;;;;;;;;;;;;;;;15.63;100.00;98358.41;2204754;80;20152;-56
2022/09/11 11:47:00;;;;;;;;;;;;;;;15.75;100.00;98358.61;2198415;80;20108;-58
2022/09/11 11:50:01;;;;;;;;;;;;;;;15.93;100.00;98359.27;2205102;80;20411;-59
2022/09/11 11:53:02;;;;;;;;;;;;;;;16.06;100.00;98357.67;2206304;80;20108;-59
2022/09/11 11:56:03;;;;;;;;;;;;;;;16.25;100.00;98362.13;2188462;81;20097;-58
2022/09/11 11:59:03;;;;;;;;;;;;;;;16.48;100.00;98367.09;2204460;80;20096;-59
2022/09/11 12:02:03;;;;;;;;;;;;;;;16.64;100.00;98364.70;2212410;80;20107;-58
2022/09/11 12:05:04;;;;;;;;;;;;;;;16.71;100.00;98362.33;2212678;80;20104;-58
2022/09/11 12:08:05;;;;;;;;;;;;;;;16.80;100.00;98366.74;2213079;80;20383;-58
2022/09/11 12:11:06;;;;;;;;;;;;;;;16.91;100.00;98363.95;2213201;80;20104;-59
2022/09/11 12:14:07;;;;;;;;;;;;;;;17.05;100.00;98364.45;2214728;80;20104;-59
2022/09/11 12:17:07;;;;;;;;;;;;;;;17.09;100.00;98365.83;2209460;80;20270;-58
2022/09/11 12:20:08;;;;;;;;;;;;;;;17.12;100.00;98374.80;2212063;80;20197;-58
2022/09/11 12:23:08;;;;;;;;;;;;;;;17.10;100.00;98368.33;2204082;80;20108;-58
2022/09/11 12:26:09;;;;;;;;;;;;;;;17.10;100.00;98372.30;2211234;80;20120;-58
2022/09/11 12:29:11;;;;;;;;;;;;;;;17.15;100.00;98369.20;2211638;80;20145;-59
2022/09/11 12:32:12;;;;;;;;;;;;;;;17.10;100.00;98377.59;2186301;80;20089;-59
2022/09/11 12:35:14;;;;;;;;;;;;;;;17.08;100.00;98378.25;2202655;80;20128;-59
2022/09/11 12:38:14;;;;;;;;;;;;;;;16.98;100.00;98373.45;2217681;79;20167;-58
2022/09/11 12:41:16;;;;;;;;;;;;;;;16.86;100.00;98366.16;2209768;80;20387;-59
2022/09/11 12:44:17;;;;;;;;;;;;;;;16.65;100.00;98362.87;2215989;80;20152;-59
2022/09/11 12:47:17;;;;;;;;;;;;;;;16.52;100.00;98352.59;2207884;80;20391;-59
2022/09/11 12:50:18;;;;;;;;;;;;;;;16.35;100.00;98358.12;2210520;80;20108;-58
2022/09/11 12:53:18;;;;;;;;;;;;;;;16.05;100.00;98354.20;2210068;80;20152;-58
2022/09/11 12:56:20;;;;;;;;;;;;;;;15.97;100.00;98359.84;2200744;80;20523;-58
2022/09/11 12:59:20;;;;;;;;;;;;;;;16.06;100.00;98368.25;2186195;80;20161;-58
2022/09/11 13:02:21;;;;;;;;;;;;;;;16.25;100.00;98367.42;2197949;80;20494;-58
2022/09/11 13:05:21;;;;;;;;;;;;;;;16.25;100.00;98364.28;2209240;80;20128;-59
2022/09/11 13:08:22;;;;;;;;;;;;;;;16.30;100.00;98366.50;2192879;80;20105;-59
2022/09/11 13:11:24;;;;;;;;;;;;;;;16.23;100.00;98374.19;2202976;80;20124;-58
2022/09/11 13:14:24;;;;;;;;;;;;;;;16.16;100.00;98392.92;2202687;80;20104;-58
2022/09/11 13:17:29;;;;;;;;;;;;;;;16.01;100.00;98379.75;2202506;79;20117;-58
2022/09/11 13:20:28;;;;;;;;;;;;;;;16.13;100.00;98377.80;2184126;80;20124;-58
2022/09/11 13:23:29;;;;;;;;;;;;;;;16.19;100.00;98374.58;2199069;80;20131;-56
2022/09/11 13:26:31;;;;;;;;;;;;;;;16.25;100.00;98378.02;2212113;79;20096;-57
2022/09/11 13:29:33;;;;;;;;;;;;;;;16.42;100.00;98374.64;2240029;79;20159;-57
2022/09/11 13:32:34;;;;;;;;;;;;;;;16.65;100.00;98382.27;2239625;79;20170;-59
2022/09/11 13:35:34;;;;;;;;;;;;;;;16.76;100.00;98378.09;2239643;79;20106;-57
2022/09/11 13:38:35;;;;;;;;;;;;;;;16.87;100.00;98375.78;2238719;79;20101;-57
2022/09/11 13:41:36;;;;;;;;;;;;;;;17.00;100.00;98385.26;2240981;78;20103;-57
2022/09/11 13:44:38;;;;;;;;;;;;;;;17.34;100.00;98376.72;2239328;79;20143;-57
2022/09/11 13:47:39;;;;;;;;;;;;;;;17.54;100.00;98370.34;2240779;79;20382;-58
2022/09/11 13:50:41;;;;;;;;;;;;;;;17.77;100.00;98361.47;2238355;79;20135;-58
2022/09/11 13:53:42;;;;;;;;;;;;;;;17.75;100.00;98383.81;2238685;79;20085;-58
2022/09/11 13:59:47;;;;;;;;;;;;;;;17.83;100.00;98361.35;2218909;79;20091;-58
2022/09/11 14:02:49;;;;;;;;;;;;;;;17.70;100.00;98367.03;2241882;78;20444;-58
2022/09/11 14:05:49;;;;;;;;;;;;;;;17.29;100.00;98379.31;2238825;78;20105;-58
2022/09/11 14:08:50;;;;;;;;;;;;;;;17.12;100.00;98370.83;2240783;78;20095;-58
2022/09/11 14:11:51;;;;;;;;;;;;;;;17.16;100.00;98366.09;2237288;79;20181;-57
2022/09/11 14:14:52;;;;;;;;;;;;;;;17.36;100.00;98373.45;2239677;78;20090;-58
2022/09/11 14:17:53;;;;;;;;;;;;;;;17.39;100.00;98369.17;2239945;78;20087;-58
2022/09/11 14:20:54;;;;;;;;;;;;;;;17.43;100.00;98368.72;2240513;79;20122;-58
2022/09/11 14:23:55;;;;;;;;;;;;;;;17.13;100.00;98389.23;2239183;79;20102;-58
2022/09/11 14:26:57;;;;;;;;;;;;;;;16.82;100.00;98371.89;2242159;78;20117;-57
2022/09/11 14:29:57;;;;;;;;;;;;;;;16.52;100.00;98379.06;2247504;78;20413;-57
2022/09/11 14:32:58;;;;;;;;;;;;;;;16.26;100.00;98375.22;2238880;78;20162;-58
2022/09/11 14:35:58;;;;;;;;;;;;;;;16.01;100.00;98381.91;2235265;79;20167;-58
2022/09/11 14:38:59;;;;;;;;;;;;;;;15.89;100.00;98379.06;2238437;79;20540;-59
2022/09/11 14:42:00;;;;;;;;;;;;;;;15.73;100.00;98382.19;2231872;78;20151;-58
2022/09/11 14:45:00;;;;;;;;;;;;;;;15.67;100.00;98373.49;2240781;79;20161;-58
2022/09/11 14:48:02;;;;;;;;;;;;;;;15.58;100.00;98386.55;2248111;79;20130;-58
2022/09/11 14:51:05;;;;;;;;;;;;;;;15.62;100.00;98383.66;2238772;78;20095;-59
2022/09/11 14:54:04;;;;;;;;;;;;;;;15.56;100.00;98381.89;2220743;79;20090;-58
2022/09/11 14:57:05;;;;;;;;;;;;;;;15.45;100.00;98378.54;2239430;78;20145;-58
2022/09/11 15:00:06;;;;;;;;;;;;;;;15.43;100.00;98381.32;2238989;79;20567;-58
2022/09/11 15:03:07;;;;;;;;;;;;;;;15.32;100.00;98378.78;2244350;79;20152;-58
2022/09/11 15:06:07;;;;;;;;;;;;;;;15.30;100.00;98392.59;2221845;78;20094;-58
2022/09/11 15:09:08;;;;;;;;;;;;;;;15.21;100.00;98404.80;2235482;78;20417;-58
2022/09/11 15:12:08;;;;;;;;;;;;;;;15.17;100.00;98408.67;2239624;78;20106;-58
2022/09/11 15:15:08;;;;;;;;;;;;;;;15.20;100.00;98401.80;2239210;79;20104;-58
2022/09/11 15:18:09;;;;;;;;;;;;;;;15.21;100.00;98403.02;2239894;78;20386;-58
2022/09/11 15:21:09;;;;;;;;;;;;;;;15.25;100.00;98405.72;2240442;78;20110;-59
2022/09/11 15:27:12;;;;;;;;;;;;;;;15.16;100.00;98405.20;2219582;78;20106;-57
2022/09/11 15:30:13;;;;;;;;;;;;;;;15.19;100.00;98404.11;2240513;78;20094;-56
2022/09/11 15:33:14;;;;;;;;;;;;;;;15.18;100.00;98415.14;2238346;79;20146;-57